createdAt,value
2022-10-05T00:00:45.155Z,7.48
2022-10-05T00:03:11.967Z,7.54
2022-10-05T00:05:38.510Z,7.55
2022-10-05T00:08:13.092Z,7.54
2022-10-05T00:10:41.366Z,7.52
2022-10-05T00:13:20.598Z,7.66
2022-10-05T00:15:48.522Z,7.61
2022-10-05T00:18:20.151Z,7.63
2022-10-05T00:20:47.825Z,7.66
2022-10-05T00:23:18.901Z,7.69
2022-10-05T00:25:45.783Z,7.61
2022-10-05T00:28:26.961Z,7.65
2022-10-05T00:30:57.768Z,7.62
2022-10-05T00:33:24.517Z,7.66
2022-10-05T00:35:51.089Z,7.67
2022-10-05T00:38:17.817Z,7.65
2022-10-05T00:41:08.522Z,7.67
2022-10-05T00:44:01.900Z,7.69
2022-10-05T00:46:44.594Z,7.69
2022-10-05T00:49:40.536Z,7.68
2022-10-05T00:52:38.129Z,7.63
2022-10-05T00:55:16.917Z,7.69
2022-10-05T00:58:08.988Z,7.70
2022-10-05T01:00:43.970Z,7.73
2022-10-05T01:03:29.606Z,7.80
2022-10-05T01:06:08.192Z,7.82
2022-10-05T01:08:47.382Z,7.87
2022-10-05T01:11:20.810Z,7.94
2022-10-05T01:14:18.675Z,7.95
2022-10-05T01:17:04.614Z,7.96
2022-10-05T01:20:08.599Z,8.02
2022-10-05T01:23:03.096Z,8.07
2022-10-05T01:25:38.745Z,8.03
2022-10-05T01:28:12.098Z,8.12
2022-10-05T01:30:43.652Z,8.08
2022-10-05T01:33:25.918Z,8.10
2022-10-05T01:36:03.420Z,8.11
2022-10-05T01:38:54.584Z,8.20
2022-10-05T01:41:33.496Z,8.34
2022-10-05T01:44:31.450Z,8.42
2022-10-05T01:47:05.427Z,8.58
2022-10-05T01:49:47.135Z,8.45
2022-10-05T01:52:51.219Z,8.29
2022-10-05T01:55:54.165Z,8.25
2022-10-05T01:58:37.094Z,8.27
2022-10-05T02:01:08.299Z,8.26
2022-10-05T02:03:39.621Z,8.24
2022-10-05T02:06:13.207Z,8.29
2022-10-05T02:09:13.773Z,8.19
2022-10-05T02:11:41.075Z,8.34
2022-10-05T02:14:11.723Z,8.31
2022-10-05T02:16:43.318Z,8.31
2022-10-05T02:19:16.142Z,8.33
2022-10-05T02:21:45.121Z,8.43
2022-10-05T02:24:15.798Z,8.45
2022-10-05T02:26:42.563Z,8.42
2022-10-05T02:29:11.627Z,8.43
2022-10-05T02:31:41.254Z,8.50
2022-10-05T02:34:28.427Z,8.43
2022-10-05T02:37:25.191Z,8.40
2022-10-05T02:40:13.368Z,8.30
2022-10-05T02:42:54.293Z,8.31
2022-10-05T02:45:46.206Z,8.47
2022-10-05T02:48:23.891Z,8.50
2022-10-05T02:50:56.155Z,8.45
2022-10-05T02:53:44.153Z,8.35
2022-10-05T02:56:31.847Z,8.31
2022-10-05T02:59:35.688Z,8.34
2022-10-05T03:02:12.448Z,8.45
2022-10-05T03:04:43.765Z,8.29
2022-10-05T03:07:17.793Z,8.17
2022-10-05T03:10:14.941Z,8.19
2022-10-05T03:12:55.603Z,8.17
2022-10-05T03:15:40.232Z,8.22
2022-10-05T03:18:37.446Z,8.20
2022-10-05T03:21:23.570Z,8.35
2022-10-05T03:24:18.320Z,8.25
2022-10-05T03:27:06.960Z,8.20
2022-10-05T03:29:38.356Z,8.21
2022-10-05T03:32:45.667Z,8.20
2022-10-05T03:35:18.554Z,8.29
2022-10-05T03:37:52.568Z,8.22
2022-10-05T03:40:22.260Z,8.25
2022-10-05T03:42:53.380Z,8.34
2022-10-05T03:45:22.681Z,8.41
2022-10-05T03:48:01.313Z,8.51
2022-10-05T03:50:40.537Z,8.46
2022-10-05T03:53:13.559Z,8.33
2022-10-05T03:55:44.048Z,8.33
2022-10-05T03:58:25.400Z,8.31
2022-10-05T04:00:54.185Z,8.49
2022-10-05T04:03:26.165Z,8.55
2022-10-05T04:05:59.309Z,8.53
2022-10-05T04:08:38.432Z,8.49
2022-10-05T04:11:10.313Z,8.56
2022-10-05T04:14:01.527Z,8.53
2022-10-05T04:16:32.295Z,8.53
2022-10-05T04:19:04.693Z,8.73
2022-10-05T04:22:15.709Z,8.79
2022-10-05T04:24:49.595Z,8.67
2022-10-05T04:27:44.344Z,8.75
2022-10-05T04:30:18.981Z,8.72
2022-10-05T04:32:54.222Z,8.66
2022-10-05T04:35:50.981Z,8.45
2022-10-05T04:38:55.253Z,8.52
2022-10-05T04:41:59.174Z,8.53
2022-10-05T04:44:37.568Z,8.56
2022-10-05T04:47:33.221Z,8.53
2022-10-05T04:50:19.068Z,8.60
2022-10-05T04:52:55.731Z,8.52
2022-10-05T04:55:33.894Z,8.51
2022-10-05T04:58:12.750Z,8.45
2022-10-05T05:00:59.341Z,8.43
2022-10-05T05:03:35.065Z,8.44
2022-10-05T05:06:17.425Z,8.42
2022-10-05T05:08:58.551Z,8.40
2022-10-05T05:11:27.303Z,8.44
2022-10-05T05:14:11.418Z,8.49
2022-10-05T05:16:40.626Z,8.47
2022-10-05T05:19:25.595Z,8.58
2022-10-05T05:22:11.181Z,8.65
2022-10-05T05:24:49.342Z,8.69
2022-10-05T05:27:29.780Z,8.68
2022-10-05T05:30:21.185Z,8.74
2022-10-05T05:33:08.504Z,8.77
2022-10-05T05:35:49.188Z,8.84
2022-10-05T05:38:18.359Z,8.86
2022-10-05T05:40:50.645Z,8.99
2022-10-05T05:43:41.952Z,9.01
2022-10-05T05:46:15.273Z,8.93
2022-10-05T05:48:43.578Z,8.85
2022-10-05T05:51:17.712Z,8.87
2022-10-05T05:53:50.907Z,8.90
2022-10-05T05:56:25.805Z,8.98
2022-10-05T05:58:54.964Z,9.11
2022-10-05T06:01:34.322Z,9.23
2022-10-05T06:04:13.265Z,9.25
2022-10-05T06:06:42.658Z,9.28
2022-10-05T06:09:25.017Z,9.41
2022-10-05T06:11:57.068Z,9.48
2022-10-05T06:14:29.793Z,9.53
2022-10-05T06:17:07.637Z,9.64
2022-10-05T06:19:35.059Z,9.73
2022-10-05T06:22:37.385Z,9.73
2022-10-05T06:25:13.112Z,9.90
2022-10-05T06:28:04.974Z,9.92
2022-10-05T06:30:53.884Z,9.89
2022-10-05T06:33:50.610Z,9.92
2022-10-05T06:36:45.935Z,10.03
2022-10-05T06:39:31.326Z,10.14
2022-10-05T06:42:25.957Z,10.09
2022-10-05T06:45:09.619Z,10.24
2022-10-05T06:47:45.182Z,10.30
2022-10-05T06:50:29.464Z,10.28
2022-10-05T06:53:14.147Z,10.24
2022-10-05T06:55:52.279Z,10.32
2022-10-05T06:58:42.885Z,10.29
2022-10-05T07:01:16.013Z,10.36
2022-10-05T07:03:47.407Z,10.44
2022-10-05T07:06:20.143Z,10.55
2022-10-05T07:08:54.704Z,10.67
2022-10-05T07:11:51.310Z,10.70
2022-10-05T07:14:34.383Z,10.92
2022-10-05T07:17:23.972Z,10.83
2022-10-05T07:20:15.277Z,10.86
2022-10-05T07:22:49.813Z,11.10
2022-10-05T07:25:19.955Z,11.22
2022-10-05T07:27:55.212Z,11.42
2022-10-05T07:30:22.114Z,11.93
2022-10-05T07:33:01.648Z,12.52
2022-10-05T07:36:32.601Z,13.21
2022-10-05T07:39:07.642Z,13.23
2022-10-05T07:41:53.025Z,12.72
2022-10-05T07:44:31.134Z,12.62
2022-10-05T07:47:12.330Z,12.45
2022-10-05T07:49:47.933Z,12.48
2022-10-05T07:52:22.688Z,12.41
2022-10-05T07:55:01.356Z,12.48
2022-10-05T07:57:38.404Z,12.63
2022-10-05T08:00:16.013Z,12.67
2022-10-05T08:02:51.762Z,12.81
2022-10-05T08:05:32.189Z,13.18
2022-10-05T08:08:14.315Z,13.65
2022-10-05T08:10:52.195Z,13.60
2022-10-05T08:13:33.569Z,13.33
2022-10-05T08:16:06.280Z,13.21
2022-10-05T08:18:59.943Z,14.08
2022-10-05T08:21:36.447Z,15.31
2022-10-05T08:24:23.162Z,16.24
2022-10-05T08:26:52.456Z,15.86
2022-10-05T08:29:42.611Z,15.44
2022-10-05T08:32:16.301Z,15.13
2022-10-05T08:34:48.285Z,14.80
2022-10-05T08:37:28.659Z,14.36
2022-10-05T08:40:25.318Z,14.15
2022-10-05T08:43:14.256Z,14.27
2022-10-05T08:46:11.721Z,14.32
2022-10-05T08:49:16.768Z,14.50
2022-10-05T08:52:02.005Z,14.69
2022-10-05T08:55:10.191Z,14.37
2022-10-05T08:58:12.403Z,14.38
2022-10-05T09:01:07.643Z,14.39
2022-10-05T09:03:48.448Z,14.39
2022-10-05T09:06:26.692Z,14.52
2022-10-05T09:09:05.383Z,14.61
2022-10-05T09:11:37.206Z,14.62
2022-10-05T09:14:17.800Z,14.79
2022-10-05T09:17:08.674Z,15.10
2022-10-05T09:19:53.993Z,15.24
2022-10-05T09:22:28.413Z,15.19
2022-10-05T09:25:05.626Z,15.24
2022-10-05T09:27:39.237Z,15.26
2022-10-05T09:30:47.880Z,15.35
2022-10-05T09:33:32.945Z,15.49
2022-10-05T09:36:05.654Z,15.41
2022-10-05T09:39:05.832Z,15.56
2022-10-05T09:42:00.151Z,15.30
2022-10-05T09:45:05.446Z,15.37
2022-10-05T09:47:45.452Z,15.52
2022-10-05T09:50:17.824Z,15.57
2022-10-05T09:53:23.419Z,15.40
2022-10-05T09:55:52.707Z,15.59
2022-10-05T09:58:44.712Z,15.65
2022-10-05T10:01:33.051Z,15.68
2022-10-05T10:04:18.924Z,15.65
2022-10-05T10:07:05.140Z,15.68
2022-10-05T10:09:46.860Z,15.68
2022-10-05T10:12:24.473Z,15.59
2022-10-05T10:15:00.588Z,15.58
2022-10-05T10:18:17.722Z,15.73
2022-10-05T10:21:25.535Z,15.82
2022-10-05T10:24:29.430Z,16.25
2022-10-05T10:27:23.384Z,16.49
2022-10-05T10:30:27.655Z,16.64
2022-10-05T10:33:20.614Z,16.57
2022-10-05T10:36:01.593Z,16.69
2022-10-05T10:39:15.491Z,16.83
2022-10-05T10:42:05.340Z,17.03
2022-10-05T10:44:43.912Z,17.09
2022-10-05T10:47:25.899Z,16.82
2022-10-05T10:50:11.903Z,16.96
2022-10-05T10:52:48.907Z,16.85
2022-10-05T10:55:35.459Z,16.73
2022-10-05T10:58:25.535Z,16.84
2022-10-05T11:00:58.172Z,16.83
2022-10-05T11:03:44.667Z,17.00
2022-10-05T11:06:24.619Z,17.08
2022-10-05T11:08:53.742Z,16.94
2022-10-05T11:11:27.280Z,16.91
2022-10-05T11:14:03.819Z,16.84
2022-10-05T11:16:44.367Z,17.01
2022-10-05T11:20:02.997Z,17.07
2022-10-05T11:22:30.365Z,17.06
2022-10-05T11:25:09.726Z,16.99
2022-10-05T11:28:11.147Z,17.07
2022-10-05T11:30:51.862Z,17.28
2022-10-05T11:33:48.920Z,17.45
2022-10-05T11:36:30.863Z,17.42
2022-10-05T11:39:23.757Z,17.23
2022-10-05T11:42:08.922Z,16.99
2022-10-05T11:45:13.723Z,16.90
2022-10-05T11:48:07.581Z,16.97
2022-10-05T11:50:41.775Z,16.91
2022-10-05T11:53:14.177Z,16.91
2022-10-05T11:56:11.426Z,17.08
2022-10-05T11:58:47.970Z,17.20
2022-10-05T12:01:36.722Z,17.04
2022-10-05T12:04:18.088Z,16.71
2022-10-05T12:07:09.489Z,16.40
2022-10-05T12:10:14.344Z,16.46
2022-10-05T12:13:22.101Z,16.48
2022-10-05T12:15:59.122Z,16.75
2022-10-05T12:18:31.517Z,16.77
2022-10-05T12:21:27.795Z,16.61
2022-10-05T12:24:05.697Z,16.62
2022-10-05T12:26:44.763Z,16.62
2022-10-05T12:29:36.278Z,16.71
2022-10-05T12:32:12.993Z,16.62
2022-10-05T12:34:49.017Z,16.66
2022-10-05T12:37:37.945Z,16.53
2022-10-05T12:40:24.212Z,16.51
2022-10-05T12:43:05.928Z,16.46
2022-10-05T12:45:35.463Z,16.48
2022-10-05T12:48:15.873Z,16.62
2022-10-05T12:50:43.367Z,16.70
2022-10-05T12:53:28.872Z,16.62
2022-10-05T12:56:07.873Z,16.62
2022-10-05T12:58:59.738Z,16.55
2022-10-05T13:01:40.550Z,16.63
2022-10-05T13:04:24.288Z,16.79
2022-10-05T13:07:29.268Z,16.86
2022-10-05T13:10:14.411Z,16.54
2022-10-05T13:12:41.092Z,16.41
2022-10-05T13:15:23.178Z,16.51
2022-10-05T13:18:01.288Z,16.62
2022-10-05T13:20:44.682Z,16.43
2022-10-05T13:23:27.242Z,16.48
2022-10-05T13:26:01.929Z,16.49
2022-10-05T13:28:39.493Z,16.50
2022-10-05T13:31:16.248Z,16.65
2022-10-05T13:34:07.378Z,16.66
2022-10-05T13:36:44.322Z,16.51
2022-10-05T13:39:39.948Z,16.49
2022-10-05T13:42:16.981Z,16.61
2022-10-05T13:44:50.011Z,16.57
2022-10-05T13:47:38.905Z,16.65
2022-10-05T13:50:17.193Z,16.60
2022-10-05T13:52:55.725Z,16.52
2022-10-05T13:55:38.062Z,16.44
2022-10-05T13:58:19.435Z,16.38
2022-10-05T14:00:53.751Z,16.30
2022-10-05T14:03:35.101Z,16.19
2022-10-05T14:06:14.863Z,16.30
2022-10-05T14:09:01.570Z,16.21
2022-10-05T14:11:36.041Z,16.21
2022-10-05T14:14:23.655Z,16.21
2022-10-05T14:16:54.086Z,16.17
2022-10-05T14:19:48.283Z,16.16
2022-10-05T14:22:24.808Z,16.06
2022-10-05T14:24:54.723Z,16.05
2022-10-05T14:27:23.013Z,16.03
2022-10-05T14:30:15.317Z,16.04
2022-10-05T14:32:59.118Z,15.91
2022-10-05T14:35:29.952Z,15.89
2022-10-05T14:38:04.016Z,15.82
2022-10-05T14:40:33.290Z,15.90
2022-10-05T14:43:32.221Z,15.91
2022-10-05T14:46:01.484Z,15.97
2022-10-05T14:48:37.714Z,15.91
2022-10-05T14:51:10.253Z,15.78
2022-10-05T14:53:48.202Z,15.72
2022-10-05T14:56:26.776Z,15.79
2022-10-05T14:59:07.641Z,15.66
2022-10-05T15:01:36.668Z,15.72
2022-10-05T15:04:15.089Z,15.71
2022-10-05T15:06:47.231Z,15.59
2022-10-05T15:09:37.528Z,15.56
2022-10-05T15:12:05.304Z,15.42
2022-10-05T15:14:34.897Z,15.52
2022-10-05T15:17:05.360Z,15.51
2022-10-05T15:19:37.983Z,15.41
2022-10-05T15:22:18.652Z,15.47
2022-10-05T15:24:57.856Z,15.25
2022-10-05T15:27:53.911Z,15.25
2022-10-05T15:30:22.451Z,15.24
2022-10-05T15:32:57.933Z,15.28
2022-10-05T15:35:36.811Z,15.18
2022-10-05T15:38:21.377Z,15.24
2022-10-05T15:40:59.051Z,15.18
2022-10-05T15:43:36.088Z,15.15
2022-10-05T15:46:34.439Z,15.05
2022-10-05T15:49:09.749Z,14.92
2022-10-05T15:51:47.960Z,14.92
2022-10-05T15:54:46.268Z,14.88
2022-10-05T15:57:21.600Z,14.79
2022-10-05T15:59:57.233Z,14.75
2022-10-05T16:02:29.952Z,14.78
2022-10-05T16:05:11.943Z,14.71
2022-10-05T16:08:06.516Z,14.81
2022-10-05T16:10:37.495Z,14.68
2022-10-05T16:13:22.714Z,14.71
2022-10-05T16:16:00.293Z,14.58
2022-10-05T16:18:33.235Z,14.59
2022-10-05T16:21:22.146Z,14.56
2022-10-05T16:24:15.949Z,14.54
2022-10-05T16:27:10.440Z,14.49
2022-10-05T16:29:53.263Z,14.51
2022-10-05T16:32:22.629Z,14.49
2022-10-05T16:35:08.650Z,14.54
2022-10-05T16:37:47.480Z,14.48
2022-10-05T16:40:19.201Z,14.48
2022-10-05T16:42:57.542Z,14.48
2022-10-05T16:45:58.672Z,14.29
2022-10-05T16:48:29.588Z,14.33
2022-10-05T16:51:19.753Z,14.38
2022-10-05T16:53:59.840Z,14.36
2022-10-05T16:56:30.970Z,14.33
2022-10-05T16:59:30.886Z,14.35
2022-10-05T17:02:09.179Z,14.25
2022-10-05T17:05:38.760Z,14.17
2022-10-05T17:08:17.336Z,14.15
2022-10-05T17:11:17.828Z,14.10
2022-10-05T17:14:01.861Z,14.18
2022-10-05T17:16:53.979Z,14.11
2022-10-05T17:19:26.620Z,14.07
2022-10-05T17:22:23.983Z,14.05
2022-10-05T17:25:24.445Z,13.93
2022-10-05T17:28:18.860Z,14.17
2022-10-05T17:30:54.186Z,14.15
2022-10-05T17:33:29.125Z,14.05
2022-10-05T17:36:12.468Z,13.97
2022-10-05T17:38:47.880Z,14.02
2022-10-05T17:41:21.717Z,13.93
2022-10-05T17:44:07.333Z,13.92
2022-10-05T17:46:38.889Z,13.88
2022-10-05T17:49:22.787Z,13.91
2022-10-05T17:52:08.057Z,13.87
2022-10-05T17:55:13.988Z,13.88
2022-10-05T17:57:42.066Z,13.83
2022-10-05T18:00:31.882Z,13.80
2022-10-05T18:02:58.634Z,13.90
2022-10-05T18:05:27.920Z,13.89
2022-10-05T18:08:13.069Z,13.83
2022-10-05T18:11:06.809Z,13.83
2022-10-05T18:13:45.698Z,13.74
2022-10-05T18:16:13.053Z,13.71
2022-10-05T18:18:43.111Z,13.70
2022-10-05T18:21:15.374Z,13.71
2022-10-05T18:24:14.110Z,13.70
2022-10-05T18:26:53.725Z,13.66
2022-10-05T18:29:54.518Z,13.70
2022-10-05T18:32:29.310Z,13.68
2022-10-05T18:35:11.325Z,13.62
2022-10-05T18:37:49.579Z,13.76
2022-10-05T18:40:26.910Z,13.65
2022-10-05T18:43:13.746Z,13.72
2022-10-05T18:45:55.814Z,13.70
2022-10-05T18:48:31.340Z,13.67
2022-10-05T18:51:22.125Z,13.71
2022-10-05T18:54:19.055Z,13.74
2022-10-05T18:56:53.012Z,13.78
2022-10-05T18:59:36.855Z,13.92
2022-10-05T19:02:11.230Z,13.90
2022-10-05T19:04:48.168Z,13.81
2022-10-05T19:07:41.503Z,13.85
2022-10-05T19:10:37.749Z,13.85
2022-10-05T19:13:34.892Z,13.80
2022-10-05T19:16:30.157Z,13.77
2022-10-05T19:19:33.477Z,13.82
2022-10-05T19:22:40.347Z,13.73
2022-10-05T19:25:28.382Z,13.69
2022-10-05T19:28:05.860Z,13.79
2022-10-05T19:31:04.701Z,13.79
2022-10-05T19:33:33.762Z,13.80
2022-10-05T19:36:16.361Z,13.66
2022-10-05T19:38:57.717Z,13.60
2022-10-05T19:42:01.808Z,13.61
2022-10-05T19:44:53.237Z,13.76
2022-10-05T19:47:37.476Z,13.63
2022-10-05T19:50:25.265Z,13.59
2022-10-05T19:53:11.531Z,13.65
2022-10-05T19:55:43.822Z,13.64
2022-10-05T19:58:22.409Z,13.50
2022-10-05T20:00:55.666Z,13.58
2022-10-05T20:03:29.182Z,13.61
2022-10-05T20:06:01.226Z,13.53
2022-10-05T20:08:36.481Z,13.57
2022-10-05T20:11:16.617Z,13.44
2022-10-05T20:13:45.920Z,13.44
2022-10-05T20:16:33.916Z,13.40
2022-10-05T20:19:38.359Z,13.47
2022-10-05T20:22:29.111Z,13.36
2022-10-05T20:24:57.806Z,13.41
2022-10-05T20:27:39.467Z,13.33
2022-10-05T20:30:07.206Z,13.29
2022-10-05T20:32:33.904Z,13.37
2022-10-05T20:35:00.389Z,13.28
2022-10-05T20:37:26.952Z,13.37
2022-10-05T20:39:53.399Z,13.26
2022-10-05T20:42:20.931Z,13.28
2022-10-05T20:44:50.778Z,13.22
2022-10-05T20:47:19.508Z,13.09
2022-10-05T20:49:45.987Z,13.13
2022-10-05T20:52:15.019Z,13.13
2022-10-05T20:54:42.084Z,13.00
2022-10-05T20:57:09.519Z,12.91
2022-10-05T20:59:36.667Z,12.93
2022-10-05T21:02:04.852Z,13.15
2022-10-05T21:04:40.799Z,12.93
2022-10-05T21:07:08.286Z,12.88
2022-10-05T21:09:38.139Z,12.75
2022-10-05T21:12:05.317Z,12.84
2022-10-05T21:14:34.218Z,12.88
2022-10-05T21:17:01.851Z,12.95
2022-10-05T21:19:29.400Z,12.88
2022-10-05T21:21:58.374Z,12.93
2022-10-05T21:24:25.407Z,12.81
2022-10-05T21:26:51.841Z,12.72
2022-10-05T21:29:18.359Z,12.65
2022-10-05T21:31:44.855Z,12.65
2022-10-05T21:34:11.417Z,12.61
2022-10-05T21:36:37.908Z,12.70
2022-10-05T21:39:05.102Z,12.59
2022-10-05T21:41:31.587Z,12.45
2022-10-05T21:43:58.414Z,12.48
2022-10-05T21:46:28.071Z,12.46
2022-10-05T21:48:55.143Z,12.49
2022-10-05T21:51:24.113Z,12.41
2022-10-05T21:53:54.557Z,12.32
2022-10-05T21:56:23.594Z,12.22
2022-10-05T21:58:50.479Z,12.21
2022-10-05T22:01:22.462Z,12.19
2022-10-05T22:03:49.539Z,12.07
2022-10-05T22:06:16.120Z,12.00
2022-10-05T22:08:42.617Z,11.99
2022-10-05T22:11:12.161Z,11.91
2022-10-05T22:13:49.732Z,11.89
2022-10-05T22:16:18.252Z,11.75
2022-10-05T22:18:44.831Z,11.80
2022-10-05T22:21:12.401Z,11.77
2022-10-05T22:23:40.427Z,11.73
2022-10-05T22:26:08.741Z,11.62
2022-10-05T22:28:35.691Z,11.69
2022-10-05T22:31:04.902Z,11.67
2022-10-05T22:33:31.372Z,11.67
2022-10-05T22:35:59.247Z,11.61
2022-10-05T22:38:26.449Z,11.54
2022-10-05T22:40:53.144Z,11.50
2022-10-05T22:43:19.580Z,11.54
2022-10-05T22:45:46.135Z,11.63
2022-10-05T22:48:12.807Z,11.55
2022-10-05T22:50:39.358Z,11.47
2022-10-05T22:53:06.029Z,11.40
2022-10-05T22:55:32.431Z,11.44
2022-10-05T22:57:58.848Z,11.35
2022-10-05T23:00:40.339Z,11.31
2022-10-05T23:03:12.772Z,11.27
2022-10-05T23:05:39.173Z,11.23
2022-10-05T23:08:05.589Z,11.13
2022-10-05T23:10:32.328Z,11.14
2022-10-05T23:13:01.053Z,11.14
2022-10-05T23:15:27.799Z,11.14
2022-10-05T23:17:56.210Z,11.08
2022-10-05T23:20:24.512Z,11.08
2022-10-05T23:22:51.066Z,11.09
2022-10-05T23:25:17.959Z,10.97
2022-10-05T23:27:44.400Z,10.93
2022-10-05T23:30:12.123Z,10.95
2022-10-05T23:32:40.539Z,10.90
2022-10-05T23:35:08.230Z,10.90
2022-10-05T23:37:42.432Z,10.90
2022-10-05T23:40:12.180Z,10.88
2022-10-05T23:42:41.550Z,10.91
2022-10-05T23:45:10.000Z,10.95
2022-10-05T23:47:37.133Z,10.95
2022-10-05T23:50:06.879Z,10.89
2022-10-05T23:52:34.141Z,10.91
2022-10-05T23:55:00.890Z,10.90
2022-10-05T23:57:27.306Z,10.85
2022-10-05T23:59:56.196Z,10.81
